createdAt,value
2023-04-25T00:00:18.431Z,8.90
2023-04-25T00:02:45.349Z,8.90
2023-04-25T00:05:12.424Z,8.80
2023-04-25T00:07:39.585Z,8.90
2023-04-25T00:10:06.732Z,8.90
2023-04-25T00:12:34.511Z,8.90
2023-04-25T00:15:01.376Z,8.90
2023-04-25T00:17:28.226Z,8.90
2023-04-25T00:19:55.120Z,8.80
2023-04-25T00:22:21.851Z,8.80
2023-04-25T00:24:48.582Z,8.90
2023-04-25T00:27:18.442Z,8.80
2023-04-25T00:29:46.056Z,8.80
2023-04-25T00:32:12.898Z,8.80
2023-04-25T00:34:39.597Z,8.70
2023-04-25T00:37:06.981Z,8.70
2023-04-25T00:39:34.086Z,8.60
2023-04-25T00:42:01.633Z,8.60
2023-04-25T00:44:37.428Z,8.60
2023-04-25T00:47:04.988Z,8.60
2023-04-25T00:49:31.816Z,8.60
2023-04-25T00:51:59.755Z,8.50
2023-04-25T00:54:26.583Z,8.50
2023-04-25T00:56:53.523Z,8.50
2023-04-25T00:59:23.049Z,8.40
2023-04-25T01:01:50.270Z,8.40
2023-04-25T01:04:17.221Z,8.40
2023-04-25T01:06:43.998Z,8.40
2023-04-25T01:09:11.124Z,8.40
2023-04-25T01:11:37.871Z,8.40
2023-04-25T01:14:04.587Z,8.30
2023-04-25T01:16:31.461Z,8.20
2023-04-25T01:18:58.256Z,8.30
2023-04-25T01:21:27.438Z,8.20
2023-04-25T01:23:55.039Z,8.30
2023-04-25T01:26:22.348Z,8.20
2023-04-25T01:28:49.406Z,8.20
2023-04-25T01:31:16.662Z,8.20
2023-04-25T01:33:44.796Z,8.20
2023-04-25T01:36:11.883Z,8.20
2023-04-25T01:38:38.982Z,8.20
2023-04-25T01:41:06.030Z,8.20
2023-04-25T01:43:32.948Z,8.20
2023-04-25T01:45:59.812Z,8.10
2023-04-25T01:48:27.037Z,8.10
2023-04-25T01:50:53.796Z,8.10
2023-04-25T01:53:20.624Z,8.10
2023-04-25T01:55:47.749Z,8.10
2023-04-25T01:58:17.884Z,8.10
2023-04-25T02:01:13.695Z,8.10
2023-04-25T02:03:46.474Z,8.10
2023-04-25T02:06:21.674Z,8.10
2023-04-25T02:08:49.352Z,8.00
2023-04-25T02:11:16.827Z,8.00
2023-04-25T02:13:58.684Z,8.00
2023-04-25T02:16:38.210Z,7.90
2023-04-25T02:19:07.283Z,7.90
2023-04-25T02:21:36.670Z,7.90
2023-04-25T02:24:04.914Z,7.90
2023-04-25T02:26:31.641Z,7.90
2023-04-25T02:28:58.355Z,7.90
2023-04-25T02:31:25.083Z,7.80
2023-04-25T02:33:53.001Z,7.80
2023-04-25T02:36:19.997Z,7.70
2023-04-25T02:38:49.134Z,7.80
2023-04-25T02:41:15.976Z,7.70
2023-04-25T02:43:42.732Z,7.70
2023-04-25T02:46:09.518Z,7.70
2023-04-25T02:48:36.323Z,7.60
2023-04-25T02:51:03.248Z,7.60
2023-04-25T02:53:30.538Z,7.60
2023-04-25T02:55:59.312Z,7.60
2023-04-25T02:58:26.419Z,7.50
2023-04-25T03:00:54.562Z,7.50
2023-04-25T03:03:22.786Z,7.50
2023-04-25T03:05:51.606Z,7.50
2023-04-25T03:08:23.644Z,7.50
2023-04-25T03:10:52.144Z,7.40
2023-04-25T03:13:19.307Z,7.40
2023-04-25T03:15:46.638Z,7.30
2023-04-25T03:18:13.372Z,7.30
2023-04-25T03:20:42.620Z,7.30
2023-04-25T03:23:09.592Z,7.30
2023-04-25T03:25:36.855Z,7.30
2023-04-25T03:28:04.861Z,7.20
2023-04-25T03:30:31.921Z,7.20
2023-04-25T03:32:59.033Z,7.20
2023-04-25T03:35:26.209Z,7.20
2023-04-25T03:37:53.453Z,7.20
2023-04-25T03:40:25.997Z,7.20
2023-04-25T03:43:13.054Z,7.20
2023-04-25T03:45:44.281Z,7.20
2023-04-25T03:48:11.339Z,7.20
2023-04-25T03:50:38.618Z,7.10
2023-04-25T03:53:05.915Z,7.10
2023-04-25T03:55:46.672Z,7.10
2023-04-25T03:58:13.672Z,7.10
2023-04-25T04:00:40.455Z,7.10
2023-04-25T04:03:07.702Z,7.00
2023-04-25T04:05:34.693Z,7.00
2023-04-25T04:08:01.502Z,7.00
2023-04-25T04:10:28.454Z,7.00
2023-04-25T04:12:55.754Z,7.00
2023-04-25T04:15:22.711Z,7.00
2023-04-25T04:17:49.749Z,6.90
2023-04-25T04:20:16.572Z,6.90
2023-04-25T04:22:43.423Z,6.90
2023-04-25T04:25:13.995Z,6.90
2023-04-25T04:28:03.805Z,6.90
2023-04-25T04:30:42.001Z,6.80
2023-04-25T04:33:09.598Z,6.80
2023-04-25T04:35:36.938Z,6.80
2023-04-25T04:38:04.020Z,6.80
2023-04-25T04:40:34.286Z,6.80
2023-04-25T04:43:21.317Z,6.80
2023-04-25T04:46:02.163Z,6.80
2023-04-25T04:48:47.395Z,6.80
2023-04-25T04:51:32.835Z,6.80
2023-04-25T04:54:14.279Z,6.80
2023-04-25T04:56:55.221Z,6.80
2023-04-25T04:59:37.402Z,6.80
2023-04-25T05:02:27.217Z,6.70
2023-04-25T05:05:23.350Z,6.80
2023-04-25T05:08:11.411Z,6.80
2023-04-25T05:11:01.206Z,6.80
2023-04-25T05:13:48.732Z,6.80
2023-04-25T05:16:27.120Z,6.80
2023-04-25T05:19:11.888Z,6.80
2023-04-25T05:21:58.196Z,6.80
2023-04-25T05:24:34.974Z,6.80
2023-04-25T05:27:23.933Z,6.80
2023-04-25T05:30:02.329Z,6.80
2023-04-25T05:32:47.784Z,6.80
2023-04-25T05:35:14.795Z,6.80
2023-04-25T05:37:46.013Z,6.80
2023-04-25T05:40:14.628Z,6.80
2023-04-25T05:42:54.788Z,6.80
2023-04-25T05:45:41.896Z,6.90
2023-04-25T05:48:23.427Z,6.90
2023-04-25T05:51:25.435Z,6.90
2023-04-25T05:54:11.815Z,6.90
2023-04-25T05:56:39.000Z,7.00
2023-04-25T05:59:06.008Z,7.00
2023-04-25T06:01:32.822Z,7.00
2023-04-25T06:03:59.964Z,7.10
2023-04-25T06:06:27.880Z,7.10
2023-04-25T06:08:55.711Z,7.10
2023-04-25T06:11:22.608Z,7.20
2023-04-25T06:13:49.664Z,7.20
2023-04-25T06:16:17.401Z,7.10
2023-04-25T06:18:44.294Z,7.10
2023-04-25T06:21:11.290Z,7.00
2023-04-25T06:23:40.896Z,7.00
2023-04-25T06:26:10.280Z,7.00
2023-04-25T06:28:49.874Z,7.00
2023-04-25T06:31:17.192Z,7.00
2023-04-25T06:33:45.515Z,7.00
2023-04-25T06:36:12.240Z,7.00
2023-04-25T06:38:39.526Z,7.10
2023-04-25T06:41:06.287Z,7.10
2023-04-25T06:43:35.957Z,7.20
2023-04-25T06:46:35.058Z,7.20
2023-04-25T06:49:01.952Z,7.30
2023-04-25T06:51:30.773Z,7.30
2023-04-25T06:53:57.984Z,7.30
2023-04-25T06:56:41.288Z,7.30
2023-04-25T06:59:12.825Z,7.30
2023-04-25T07:01:41.361Z,7.30
2023-04-25T07:04:21.523Z,7.30
2023-04-25T07:06:55.929Z,7.40
2023-04-25T07:09:43.084Z,7.40
2023-04-25T07:12:09.801Z,7.40
2023-04-25T07:14:36.997Z,7.40
2023-04-25T07:17:04.312Z,7.40
2023-04-25T07:19:33.057Z,7.40
2023-04-25T07:22:01.810Z,7.40
2023-04-25T07:24:28.690Z,7.40
2023-04-25T07:26:57.444Z,7.40
2023-04-25T07:29:32.460Z,7.50
2023-04-25T07:32:00.645Z,7.60
2023-04-25T07:34:27.505Z,7.60
2023-04-25T07:36:54.772Z,7.70
2023-04-25T07:39:24.188Z,7.80
2023-04-25T07:41:53.749Z,7.80
2023-04-25T07:44:25.669Z,7.90
2023-04-25T07:46:52.412Z,7.90
2023-04-25T07:49:19.741Z,8.00
2023-04-25T07:51:46.617Z,8.00
2023-04-25T07:54:19.111Z,8.10
2023-04-25T07:56:53.389Z,8.10
2023-04-25T07:59:23.971Z,8.10
2023-04-25T08:01:51.458Z,8.10
2023-04-25T08:04:20.099Z,8.20
2023-04-25T08:06:53.421Z,8.20
2023-04-25T08:09:24.332Z,8.20
2023-04-25T08:11:52.457Z,8.20
2023-04-25T08:14:24.423Z,8.20
2023-04-25T08:16:51.731Z,8.30
2023-04-25T08:19:21.029Z,8.30
2023-04-25T08:21:48.243Z,8.40
2023-04-25T08:24:19.816Z,8.40
2023-04-25T08:26:46.648Z,8.40
2023-04-25T08:29:16.584Z,8.50
2023-04-25T08:31:44.045Z,8.50
2023-04-25T08:34:12.120Z,8.50
2023-04-25T08:36:49.653Z,8.50
2023-04-25T08:39:29.100Z,8.50
2023-04-25T08:42:35.821Z,8.50
2023-04-25T08:45:07.098Z,8.50
2023-04-25T08:47:39.417Z,8.30
2023-04-25T08:50:07.030Z,8.30
2023-04-25T08:52:37.008Z,8.20
2023-04-25T08:55:04.762Z,8.10
2023-04-25T08:57:32.473Z,8.00
2023-04-25T08:59:59.345Z,7.90
2023-04-25T09:02:26.456Z,7.80
2023-04-25T09:04:55.526Z,7.80
2023-04-25T09:07:22.585Z,7.80
2023-04-25T09:09:50.714Z,7.80
2023-04-25T09:12:21.138Z,7.90
2023-04-25T09:15:02.231Z,8.00
2023-04-25T09:17:45.689Z,8.00
2023-04-25T09:20:13.930Z,8.10
2023-04-25T09:22:41.196Z,8.10
2023-04-25T09:25:10.259Z,8.20
2023-04-25T09:27:37.158Z,8.30
2023-04-25T09:30:16.816Z,8.50
2023-04-25T09:32:58.798Z,8.40
2023-04-25T09:35:27.363Z,8.40
2023-04-25T09:37:56.970Z,8.20
2023-04-25T09:40:45.653Z,8.20
2023-04-25T09:43:21.711Z,8.30
2023-04-25T09:45:50.923Z,8.30
2023-04-25T09:48:23.832Z,8.30
2023-04-25T09:51:06.339Z,8.40
2023-04-25T09:53:37.112Z,8.40
2023-04-25T09:56:13.726Z,8.40
2023-04-25T09:58:41.557Z,8.40
2023-04-25T10:01:10.193Z,8.50
2023-04-25T10:03:48.661Z,8.60
2023-04-25T10:06:30.915Z,8.70
2023-04-25T10:08:57.895Z,8.70
2023-04-25T10:11:25.758Z,8.70
2023-04-25T10:13:53.575Z,8.70
2023-04-25T10:16:20.941Z,8.70
2023-04-25T10:18:47.711Z,8.70
2023-04-25T10:21:15.633Z,8.70
2023-04-25T10:23:43.063Z,8.80
2023-04-25T10:26:13.617Z,8.80
2023-04-25T10:28:56.517Z,8.90
2023-04-25T10:31:23.440Z,8.90
2023-04-25T10:33:50.772Z,9.00
2023-04-25T10:36:24.269Z,8.90
2023-04-25T10:38:51.975Z,8.90
2023-04-25T10:41:20.000Z,8.90
2023-04-25T10:43:52.031Z,8.90
2023-04-25T10:46:20.593Z,8.90
2023-04-25T10:48:51.400Z,8.80
2023-04-25T10:51:39.994Z,8.80
2023-04-25T10:54:19.938Z,8.80
2023-04-25T10:56:46.763Z,8.80
2023-04-25T10:59:17.216Z,8.70
2023-04-25T11:01:47.403Z,8.80
2023-04-25T11:04:24.579Z,8.90
2023-04-25T11:07:07.973Z,8.90
2023-04-25T11:09:36.247Z,9.00
2023-04-25T11:12:03.110Z,9.20
2023-04-25T11:14:30.095Z,9.30
2023-04-25T11:17:00.314Z,9.30
2023-04-25T11:19:28.016Z,9.40
2023-04-25T11:21:58.344Z,9.50
2023-04-25T11:24:28.691Z,9.40
2023-04-25T11:26:55.651Z,9.30
2023-04-25T11:29:29.266Z,9.10
2023-04-25T11:31:58.994Z,8.90
2023-04-25T11:34:26.349Z,8.80
2023-04-25T11:36:53.765Z,8.70
2023-04-25T11:39:21.044Z,8.60
2023-04-25T11:41:48.202Z,8.60
2023-04-25T11:44:19.032Z,8.60
2023-04-25T11:46:46.118Z,8.60
2023-04-25T11:49:13.198Z,8.60
2023-04-25T11:51:44.266Z,8.60
2023-04-25T11:54:13.131Z,8.70
2023-04-25T11:56:46.455Z,8.70
2023-04-25T11:59:14.000Z,8.70
2023-04-25T12:01:49.460Z,8.70
2023-04-25T12:04:23.296Z,8.70
2023-04-25T12:06:51.727Z,8.80
2023-04-25T12:09:19.602Z,8.90
2023-04-25T12:11:47.230Z,9.00
2023-04-25T12:14:22.526Z,9.00
2023-04-25T12:16:49.561Z,9.10
2023-04-25T12:19:17.793Z,9.10
2023-04-25T12:21:57.195Z,9.00
2023-04-25T12:24:26.669Z,8.90
2023-04-25T12:27:06.742Z,8.90
2023-04-25T12:29:42.568Z,8.90
2023-04-25T12:32:16.228Z,8.90
2023-04-25T12:34:43.137Z,8.90
2023-04-25T12:37:10.177Z,9.00
2023-04-25T12:39:37.318Z,9.10
2023-04-25T12:42:06.195Z,9.20
2023-04-25T12:44:35.093Z,9.30
2023-04-25T12:47:05.204Z,9.30
2023-04-25T12:49:35.911Z,9.20
2023-04-25T12:52:02.921Z,9.20
2023-04-25T12:54:29.871Z,9.10
2023-04-25T12:56:58.512Z,9.10
2023-04-25T12:59:25.960Z,9.20
2023-04-25T13:01:53.032Z,9.20
2023-04-25T13:04:22.199Z,9.30
2023-04-25T13:06:49.266Z,9.10
2023-04-25T13:09:16.631Z,8.80
2023-04-25T13:11:43.786Z,8.60
2023-04-25T13:14:10.775Z,8.40
2023-04-25T13:16:37.745Z,8.20
2023-04-25T13:19:09.480Z,8.30
2023-04-25T13:21:36.613Z,8.30
2023-04-25T13:24:03.698Z,8.30
2023-04-25T13:26:30.565Z,8.40
2023-04-25T13:28:58.121Z,8.40
2023-04-25T13:31:25.819Z,8.40
2023-04-25T13:33:53.248Z,8.50
2023-04-25T13:36:20.629Z,8.50
2023-04-25T13:38:50.079Z,8.40
2023-04-25T13:41:19.790Z,8.30
2023-04-25T13:43:49.048Z,8.20
2023-04-25T13:46:35.550Z,7.90
2023-04-25T13:49:12.190Z,7.70
2023-04-25T13:51:39.988Z,7.50
2023-04-25T13:54:07.010Z,7.40
2023-04-25T13:56:33.742Z,7.40
2023-04-25T13:59:00.572Z,7.50
2023-04-25T14:01:29.091Z,7.60
2023-04-25T14:03:56.043Z,7.70
2023-04-25T14:06:24.998Z,7.80
2023-04-25T14:08:51.880Z,7.90
2023-04-25T14:11:19.599Z,7.90
2023-04-25T14:13:46.836Z,7.90
2023-04-25T14:16:13.726Z,8.00
2023-04-25T14:18:40.925Z,8.00
2023-04-25T14:21:07.712Z,8.00
2023-04-25T14:23:34.549Z,8.00
2023-04-25T14:26:01.588Z,8.00
2023-04-25T14:28:28.647Z,8.10
2023-04-25T14:30:55.793Z,8.10
2023-04-25T14:33:23.009Z,8.20
2023-04-25T14:35:49.806Z,8.20
2023-04-25T14:38:16.997Z,8.30
2023-04-25T14:40:43.722Z,8.40
2023-04-25T14:43:10.519Z,8.50
2023-04-25T14:45:37.266Z,8.50
2023-04-25T14:48:04.158Z,8.50
2023-04-25T14:50:31.107Z,8.60
2023-04-25T14:53:00.129Z,8.70
2023-04-25T14:55:29.971Z,8.80
2023-04-25T14:57:57.642Z,8.80
2023-04-25T15:00:26.201Z,8.80
2023-04-25T15:02:53.071Z,8.70
2023-04-25T15:05:21.112Z,8.70
2023-04-25T15:07:48.796Z,8.60
2023-04-25T15:10:16.960Z,8.60
2023-04-25T15:12:45.646Z,8.50
2023-04-25T15:15:22.560Z,8.50
2023-04-25T15:17:52.620Z,8.60
2023-04-25T15:20:19.491Z,8.60
2023-04-25T15:22:46.886Z,8.70
2023-04-25T15:25:13.677Z,8.70
2023-04-25T15:27:44.664Z,8.80
2023-04-25T15:30:13.518Z,8.80
2023-04-25T15:32:40.470Z,8.70
2023-04-25T15:35:07.825Z,8.60
2023-04-25T15:37:34.785Z,8.60
2023-04-25T15:40:09.783Z,8.70
2023-04-25T15:42:37.482Z,8.60
2023-04-25T15:45:05.233Z,8.60
2023-04-25T15:47:32.028Z,8.60
2023-04-25T15:49:59.338Z,8.60
2023-04-25T15:52:26.108Z,8.60
2023-04-25T15:54:54.736Z,8.60
2023-04-25T15:57:21.468Z,8.50
2023-04-25T15:59:48.982Z,8.50
2023-04-25T16:02:16.570Z,8.60
2023-04-25T16:04:43.828Z,8.60
2023-04-25T16:07:10.687Z,8.50
2023-04-25T16:09:37.679Z,8.50
2023-04-25T16:12:04.905Z,8.60
2023-04-25T16:14:32.279Z,8.50
2023-04-25T16:17:01.951Z,8.50
2023-04-25T16:19:28.847Z,8.40
2023-04-25T16:21:55.639Z,8.30
2023-04-25T16:24:22.395Z,8.30
2023-04-25T16:26:49.162Z,8.30
2023-04-25T16:29:17.716Z,8.30
2023-04-25T16:31:44.633Z,8.40
2023-04-25T16:34:11.969Z,8.40
2023-04-25T16:36:38.963Z,8.40
2023-04-25T16:39:08.430Z,8.40
2023-04-25T16:41:35.818Z,8.40
2023-04-25T16:44:02.656Z,8.40
2023-04-25T16:46:29.579Z,8.40
2023-04-25T16:48:56.518Z,8.50
2023-04-25T16:51:23.333Z,8.50
2023-04-25T16:53:50.151Z,8.50
2023-04-25T16:56:17.159Z,8.50
2023-04-25T16:58:43.985Z,8.40
2023-04-25T17:01:11.527Z,8.50
2023-04-25T17:03:38.504Z,8.50
2023-04-25T17:06:05.521Z,8.50
2023-04-25T17:08:32.305Z,8.40
2023-04-25T17:10:59.927Z,8.40
2023-04-25T17:13:30.529Z,8.40
2023-04-25T17:15:57.851Z,8.40
2023-04-25T17:18:24.796Z,8.40
2023-04-25T17:20:51.999Z,8.40
2023-04-25T17:23:19.201Z,8.30
2023-04-25T17:25:46.207Z,8.30
2023-04-25T17:28:13.064Z,8.30
2023-04-25T17:30:40.285Z,8.30
2023-04-25T17:33:07.306Z,8.30
2023-04-25T17:35:34.157Z,8.30
2023-04-25T17:38:00.880Z,8.20
2023-04-25T17:40:27.626Z,8.20
2023-04-25T17:42:54.350Z,8.10
2023-04-25T17:45:21.149Z,8.10
2023-04-25T17:47:48.100Z,8.10
2023-04-25T17:50:16.676Z,8.10
2023-04-25T17:52:45.102Z,8.00
2023-04-25T17:55:11.933Z,8.00
2023-04-25T17:57:38.644Z,8.00
2023-04-25T18:00:07.869Z,7.90
2023-04-25T18:02:39.326Z,7.90
2023-04-25T18:05:09.467Z,7.90
2023-04-25T18:07:36.659Z,7.90
2023-04-25T18:10:05.973Z,7.80
2023-04-25T18:12:35.897Z,7.80
2023-04-25T18:15:06.776Z,7.70
2023-04-25T18:17:40.397Z,7.70
2023-04-25T18:20:10.028Z,7.70
2023-04-25T18:22:37.661Z,7.60
2023-04-25T18:25:05.728Z,7.60
2023-04-25T18:27:33.046Z,7.60
2023-04-25T18:30:00.225Z,7.50
2023-04-25T18:32:28.614Z,7.50
2023-04-25T18:34:55.896Z,7.50
2023-04-25T18:37:22.624Z,7.40
2023-04-25T18:39:49.368Z,7.40
2023-04-25T18:42:16.939Z,7.40
2023-04-25T18:44:44.137Z,7.40
2023-04-25T18:47:13.001Z,7.30
2023-04-25T18:49:40.111Z,7.20
2023-04-25T18:52:12.307Z,7.20
2023-04-25T18:54:39.686Z,7.10
2023-04-25T18:57:06.451Z,7.00
2023-04-25T18:59:33.638Z,7.00
2023-04-25T19:02:02.053Z,7.00
2023-04-25T19:04:29.835Z,7.00
2023-04-25T19:06:56.814Z,7.00
2023-04-25T19:09:24.915Z,7.00
2023-04-25T19:11:51.973Z,7.00
2023-04-25T19:14:18.939Z,6.90
2023-04-25T19:16:46.697Z,6.90
2023-04-25T19:19:13.758Z,6.90
2023-04-25T19:21:41.627Z,6.90
2023-04-25T19:24:08.839Z,6.90
2023-04-25T19:26:35.655Z,6.80
2023-04-25T19:29:09.867Z,6.80
2023-04-25T19:31:37.724Z,6.80
2023-04-25T19:34:08.904Z,6.80
2023-04-25T19:36:37.258Z,6.80
2023-04-25T19:39:04.752Z,6.70
2023-04-25T19:41:32.137Z,6.70
2023-04-25T19:44:00.875Z,6.70
2023-04-25T19:46:27.904Z,6.70
2023-04-25T19:48:55.484Z,6.70
2023-04-25T19:51:23.159Z,6.70
2023-04-25T19:53:53.264Z,6.70
2023-04-25T19:56:21.046Z,6.70
2023-04-25T19:58:51.725Z,6.70
2023-04-25T20:01:26.440Z,6.70
2023-04-25T20:03:53.813Z,6.60
2023-04-25T20:06:21.017Z,6.60
2023-04-25T20:08:47.982Z,6.60
2023-04-25T20:11:15.709Z,6.60
2023-04-25T20:13:42.715Z,6.60
2023-04-25T20:16:09.535Z,6.60
2023-04-25T20:18:36.417Z,6.50
2023-04-25T20:21:03.365Z,6.50
2023-04-25T20:23:32.915Z,6.50
2023-04-25T20:26:00.434Z,6.50
2023-04-25T20:28:29.450Z,6.40
2023-04-25T20:31:04.180Z,6.50
2023-04-25T20:33:31.307Z,6.50
2023-04-25T20:36:01.295Z,6.50
2023-04-25T20:38:28.500Z,6.50
2023-04-25T20:40:59.539Z,6.40
2023-04-25T20:46:41.497Z,6.40
2023-04-25T20:49:12.360Z,6.30
2023-04-25T20:51:39.822Z,6.30
2023-04-25T20:54:10.526Z,6.30
2023-04-25T20:56:41.373Z,6.40
2023-04-25T20:59:11.899Z,6.30
2023-04-25T21:01:41.883Z,6.40
2023-04-25T21:04:12.279Z,6.30
2023-04-25T21:06:39.964Z,6.30
2023-04-25T21:09:10.117Z,6.20
2023-04-25T21:11:41.446Z,6.20
2023-04-25T21:14:11.847Z,6.20
2023-04-25T21:16:39.287Z,6.20
2023-04-25T21:19:08.757Z,6.20
2023-04-25T21:21:37.760Z,6.20
2023-04-25T21:24:04.553Z,6.10
2023-04-25T21:26:34.332Z,6.10
2023-04-25T21:29:01.110Z,6.10
2023-04-25T21:31:29.677Z,6.10
2023-04-25T21:33:58.420Z,6.10
2023-04-25T21:36:31.352Z,6.10
2023-04-25T21:39:00.847Z,6.00
2023-04-25T21:41:31.194Z,6.00
2023-04-25T21:44:00.394Z,6.00
2023-04-25T21:46:30.501Z,6.00
2023-04-25T21:49:03.154Z,6.10
2023-04-25T21:51:32.138Z,6.10
2023-04-25T21:54:05.442Z,6.10
2023-04-25T21:56:33.458Z,6.10
2023-04-25T21:59:00.808Z,6.10
2023-04-25T22:01:32.925Z,6.10
2023-04-25T22:04:05.595Z,6.00
2023-04-25T22:06:33.097Z,6.00
2023-04-25T22:08:59.777Z,6.00
2023-04-25T22:11:28.508Z,6.00
2023-04-25T22:13:55.235Z,5.90
2023-04-25T22:16:22.045Z,5.90
2023-04-25T22:18:49.217Z,5.90
2023-04-25T22:21:17.227Z,5.90
2023-04-25T22:23:43.970Z,5.90
2023-04-25T22:26:10.650Z,5.90
2023-04-25T22:28:37.646Z,5.90
2023-04-25T22:31:05.031Z,5.80
2023-04-25T22:33:33.859Z,5.80
2023-04-25T22:36:01.166Z,5.80
2023-04-25T22:38:28.380Z,5.80
2023-04-25T22:40:57.570Z,5.70
2023-04-25T22:43:24.325Z,5.70
2023-04-25T22:45:52.157Z,5.70
2023-04-25T22:48:19.556Z,5.70
2023-04-25T22:50:46.662Z,5.70
2023-04-25T22:53:13.458Z,5.60
2023-04-25T22:55:40.652Z,5.60
2023-04-25T22:58:09.535Z,5.60
2023-04-25T23:00:37.485Z,5.60
2023-04-25T23:03:04.740Z,5.50
2023-04-25T23:05:32.863Z,5.60
2023-04-25T23:07:59.968Z,5.60
2023-04-25T23:10:27.950Z,5.60
2023-04-25T23:12:57.329Z,5.50
2023-04-25T23:15:25.716Z,5.50
2023-04-25T23:17:52.536Z,5.50
2023-04-25T23:20:19.265Z,5.50
2023-04-25T23:22:49.697Z,5.50
2023-04-25T23:25:17.225Z,5.50
2023-04-25T23:27:44.872Z,5.50
2023-04-25T23:30:11.919Z,5.50
2023-04-25T23:32:44.665Z,5.50
2023-04-25T23:35:13.212Z,5.60
2023-04-25T23:37:43.046Z,5.60
2023-04-25T23:40:10.061Z,5.60
2023-04-25T23:42:37.304Z,5.60
2023-04-25T23:45:07.359Z,5.60
2023-04-25T23:47:34.618Z,5.60
2023-04-25T23:50:03.120Z,5.60
2023-04-25T23:52:29.857Z,5.60
2023-04-25T23:54:56.564Z,5.50
2023-04-25T23:57:23.405Z,5.50
2023-04-25T23:59:50.256Z,5.50
